sensor_id;sensor_type;location;lat;lon;timestamp;P1;durP1;ratioP1;P2;durP2;ratioP2
49183;SDS011;35021;49.214;12.270;2023-09-08T00:02:25;2.53;;;2.20;;
49183;SDS011;35021;49.214;12.270;2023-09-08T00:04:53;2.65;;;2.30;;
49183;SDS011;35021;49.214;12.270;2023-09-08T00:07:20;3.22;;;2.00;;
49183;SDS011;35021;49.214;12.270;2023-09-08T00:09:47;2.38;;;2.15;;
49183;SDS011;35021;49.214;12.270;2023-09-08T00:12:14;3.25;;;2.10;;
49183;SDS011;35021;49.214;12.270;2023-09-08T00:14:41;4.85;;;2.03;;
49183;SDS011;35021;49.214;12.270;2023-09-08T00:17:08;2.78;;;2.08;;
49183;SDS011;35021;49.214;12.270;2023-09-08T00:19:35;2.72;;;1.90;;
49183;SDS011;35021;49.214;12.270;2023-09-08T00:22:03;3.13;;;2.25;;
49183;SDS011;35021;49.214;12.270;2023-09-08T00:24:32;3.05;;;2.30;;
49183;SDS011;35021;49.214;12.270;2023-09-08T00:27:00;2.33;;;2.13;;
49183;SDS011;35021;49.214;12.270;2023-09-08T00:29:27;3.58;;;2.30;;
49183;SDS011;35021;49.214;12.270;2023-09-08T00:31:54;2.55;;;2.08;;
49183;SDS011;35021;49.214;12.270;2023-09-08T00:34:21;4.93;;;2.35;;
49183;SDS011;35021;49.214;12.270;2023-09-08T00:36:48;2.55;;;1.92;;
49183;SDS011;35021;49.214;12.270;2023-09-08T00:39:14;2.72;;;2.17;;
49183;SDS011;35021;49.214;12.270;2023-09-08T00:41:41;2.50;;;2.22;;
49183;SDS011;35021;49.214;12.270;2023-09-08T00:44:08;1.95;;;1.70;;
49183;SDS011;35021;49.214;12.270;2023-09-08T00:46:37;2.25;;;2.00;;
49183;SDS011;35021;49.214;12.270;2023-09-08T00:49:05;2.67;;;2.47;;
49183;SDS011;35021;49.214;12.270;2023-09-08T00:51:32;4.35;;;2.10;;
49183;SDS011;35021;49.214;12.270;2023-09-08T00:54:01;3.30;;;2.50;;
49183;SDS011;35021;49.214;12.270;2023-09-08T00:56:29;2.83;;;2.00;;
49183;SDS011;35021;49.214;12.270;2023-09-08T00:58:56;2.25;;;2.03;;
49183;SDS011;35021;49.214;12.270;2023-09-08T01:01:24;4.28;;;2.65;;
49183;SDS011;35021;49.214;12.270;2023-09-08T01:03:51;3.90;;;2.20;;
49183;SDS011;35021;49.214;12.270;2023-09-08T01:06:18;3.25;;;2.22;;
49183;SDS011;35021;49.214;12.270;2023-09-08T01:08:45;2.72;;;2.05;;
49183;SDS011;35021;49.214;12.270;2023-09-08T01:11:13;2.83;;;2.10;;
49183;SDS011;35021;49.214;12.270;2023-09-08T01:13:40;2.83;;;2.40;;
49183;SDS011;35021;49.214;12.270;2023-09-08T01:16:07;3.15;;;2.20;;
49183;SDS011;35021;49.214;12.270;2023-09-08T01:18:40;3.85;;;2.22;;
49183;SDS011;35021;49.214;12.270;2023-09-08T01:26:56;2.22;;;2.00;;
49183;SDS011;35021;49.214;12.270;2023-09-08T01:29:23;2.88;;;2.30;;
49183;SDS011;35021;49.214;12.270;2023-09-08T01:31:51;2.35;;;2.00;;
49183;SDS011;35021;49.214;12.270;2023-09-08T01:34:19;2.08;;;1.83;;
49183;SDS011;35021;49.214;12.270;2023-09-08T01:36:46;2.60;;;2.20;;
49183;SDS011;35021;49.214;12.270;2023-09-08T01:39:13;2.28;;;2.08;;
49183;SDS011;35021;49.214;12.270;2023-09-08T01:41:40;2.58;;;1.70;;
49183;SDS011;35021;49.214;12.270;2023-09-08T01:44:07;2.33;;;1.83;;
49183;SDS011;35021;49.214;12.270;2023-09-08T01:46:36;2.42;;;1.98;;
49183;SDS011;35021;49.214;12.270;2023-09-08T01:49:05;2.30;;;2.00;;
49183;SDS011;35021;49.214;12.270;2023-09-08T01:51:32;2.15;;;1.90;;
49183;SDS011;35021;49.214;12.270;2023-09-08T01:53:59;2.72;;;2.15;;
49183;SDS011;35021;49.214;12.270;2023-09-08T01:56:25;3.17;;;2.28;;
49183;SDS011;35021;49.214;12.270;2023-09-08T01:58:52;3.30;;;1.67;;
49183;SDS011;35021;49.214;12.270;2023-09-08T02:01:19;2.25;;;1.90;;
49183;SDS011;35021;49.214;12.270;2023-09-08T02:03:46;2.45;;;2.00;;
49183;SDS011;35021;49.214;12.270;2023-09-08T02:06:13;2.05;;;1.80;;
49183;SDS011;35021;49.214;12.270;2023-09-08T02:08:40;2.63;;;1.83;;
49183;SDS011;35021;49.214;12.270;2023-09-08T02:11:07;3.03;;;2.20;;
49183;SDS011;35021;49.214;12.270;2023-09-08T02:13:33;2.25;;;2.05;;
49183;SDS011;35021;49.214;12.270;2023-09-08T02:16:00;3.40;;;2.00;;
49183;SDS011;35021;49.214;12.270;2023-09-08T02:18:28;2.30;;;2.10;;
49183;SDS011;35021;49.214;12.270;2023-09-08T02:20:55;2.53;;;1.63;;
49183;SDS011;35021;49.214;12.270;2023-09-08T02:23:21;2.40;;;1.95;;
49183;SDS011;35021;49.214;12.270;2023-09-08T02:25:48;2.28;;;2.05;;
49183;SDS011;35021;49.214;12.270;2023-09-08T02:28:15;3.45;;;1.80;;
49183;SDS011;35021;49.214;12.270;2023-09-08T02:30:42;3.75;;;1.90;;
49183;SDS011;35021;49.214;12.270;2023-09-08T02:33:09;1.85;;;1.75;;
49183;SDS011;35021;49.214;12.270;2023-09-08T02:35:36;4.32;;;2.38;;
49183;SDS011;35021;49.214;12.270;2023-09-08T02:38:05;2.47;;;2.00;;
49183;SDS011;35021;49.214;12.270;2023-09-08T02:40:32;3.22;;;2.28;;
49183;SDS011;35021;49.214;12.270;2023-09-08T02:43:01;2.42;;;2.10;;
49183;SDS011;35021;49.214;12.270;2023-09-08T02:45:29;4.20;;;2.17;;
49183;SDS011;35021;49.214;12.270;2023-09-08T02:47:58;2.45;;;1.98;;
49183;SDS011;35021;49.214;12.270;2023-09-08T02:50:25;2.35;;;1.90;;
49183;SDS011;35021;49.214;12.270;2023-09-08T02:52:52;2.58;;;2.00;;
49183;SDS011;35021;49.214;12.270;2023-09-08T02:55:19;2.50;;;1.90;;
49183;SDS011;35021;49.214;12.270;2023-09-08T02:57:46;2.00;;;1.80;;
49183;SDS011;35021;49.214;12.270;2023-09-08T03:00:13;2.10;;;1.90;;
49183;SDS011;35021;49.214;12.270;2023-09-08T03:02:40;2.40;;;1.90;;
49183;SDS011;35021;49.214;12.270;2023-09-08T03:05:07;2.15;;;1.95;;
49183;SDS011;35021;49.214;12.270;2023-09-08T03:07:34;2.55;;;2.03;;
49183;SDS011;35021;49.214;12.270;2023-09-08T03:10:03;2.22;;;2.00;;
49183;SDS011;35021;49.214;12.270;2023-09-08T03:12:31;2.83;;;1.70;;
49183;SDS011;35021;49.214;12.270;2023-09-08T03:14:59;2.72;;;1.98;;
49183;SDS011;35021;49.214;12.270;2023-09-08T03:17:28;2.60;;;1.98;;
49183;SDS011;35021;49.214;12.270;2023-09-08T03:19:55;2.20;;;1.92;;
49183;SDS011;35021;49.214;12.270;2023-09-08T03:22:22;2.72;;;2.08;;
49183;SDS011;35021;49.214;12.270;2023-09-08T03:24:51;2.20;;;2.00;;
49183;SDS011;35021;49.214;12.270;2023-09-08T03:27:18;2.40;;;1.77;;
49183;SDS011;35021;49.214;12.270;2023-09-08T03:29:45;2.13;;;1.92;;
49183;SDS011;35021;49.214;12.270;2023-09-08T03:32:12;2.03;;;1.73;;
49183;SDS011;35021;49.214;12.270;2023-09-08T03:34:39;2.78;;;2.13;;
49183;SDS011;35021;49.214;12.270;2023-09-08T03:37:06;3.05;;;2.33;;
49183;SDS011;35021;49.214;12.270;2023-09-08T03:39:33;3.38;;;2.10;;
49183;SDS011;35021;49.214;12.270;2023-09-08T03:42:00;2.53;;;1.90;;
49183;SDS011;35021;49.214;12.270;2023-09-08T03:44:28;3.08;;;1.90;;
49183;SDS011;35021;49.214;12.270;2023-09-08T03:46:55;2.63;;;2.10;;
49183;SDS011;35021;49.214;12.270;2023-09-08T03:49:22;2.08;;;1.85;;
49183;SDS011;35021;49.214;12.270;2023-09-08T03:51:48;3.78;;;1.90;;
49183;SDS011;35021;49.214;12.270;2023-09-08T03:54:15;2.67;;;2.13;;
49183;SDS011;35021;49.214;12.270;2023-09-08T03:56:42;2.70;;;2.17;;
49183;SDS011;35021;49.214;12.270;2023-09-08T03:59:09;3.13;;;2.20;;
49183;SDS011;35021;49.214;12.270;2023-09-08T04:01:36;2.45;;;2.00;;
49183;SDS011;35021;49.214;12.270;2023-09-08T04:04:03;3.38;;;2.00;;
49183;SDS011;35021;49.214;12.270;2023-09-08T04:06:30;2.03;;;1.83;;
49183;SDS011;35021;49.214;12.270;2023-09-08T04:08:59;2.40;;;2.17;;
49183;SDS011;35021;49.214;12.270;2023-09-08T04:11:26;2.10;;;1.98;;
49183;SDS011;35021;49.214;12.270;2023-09-08T04:13:53;1.98;;;1.77;;
49183;SDS011;35021;49.214;12.270;2023-09-08T04:16:20;2.25;;;2.05;;
49183;SDS011;35021;49.214;12.270;2023-09-08T04:18:47;4.03;;;2.20;;
49183;SDS011;35021;49.214;12.270;2023-09-08T04:21:14;2.20;;;2.00;;
49183;SDS011;35021;49.214;12.270;2023-09-08T04:23:41;2.95;;;2.00;;
49183;SDS011;35021;49.214;12.270;2023-09-08T04:26:08;3.10;;;2.15;;
49183;SDS011;35021;49.214;12.270;2023-09-08T04:28:34;4.07;;;2.08;;
49183;SDS011;35021;49.214;12.270;2023-09-08T04:31:01;2.10;;;1.90;;
49183;SDS011;35021;49.214;12.270;2023-09-08T04:33:29;3.10;;;2.20;;
49183;SDS011;35021;49.214;12.270;2023-09-08T04:35:56;2.38;;;2.10;;
49183;SDS011;35021;49.214;12.270;2023-09-08T04:38:23;3.95;;;2.50;;
49183;SDS011;35021;49.214;12.270;2023-09-08T04:40:49;3.20;;;1.92;;
49183;SDS011;35021;49.214;12.270;2023-09-08T04:43:16;2.45;;;1.92;;
49183;SDS011;35021;49.214;12.270;2023-09-08T04:45:43;4.20;;;2.30;;
49183;SDS011;35021;49.214;12.270;2023-09-08T04:48:10;2.17;;;1.98;;
49183;SDS011;35021;49.214;12.270;2023-09-08T04:50:37;3.42;;;1.98;;
49183;SDS011;35021;49.214;12.270;2023-09-08T04:53:04;3.08;;;2.20;;
49183;SDS011;35021;49.214;12.270;2023-09-08T04:55:31;2.13;;;1.90;;
49183;SDS011;35021;49.214;12.270;2023-09-08T04:57:58;3.20;;;2.40;;
49183;SDS011;35021;49.214;12.270;2023-09-08T05:00:25;3.45;;;2.10;;
49183;SDS011;35021;49.214;12.270;2023-09-08T05:02:52;3.30;;;2.40;;
49183;SDS011;35021;49.214;12.270;2023-09-08T05:05:19;2.15;;;1.95;;
49183;SDS011;35021;49.214;12.270;2023-09-08T05:07:46;3.88;;;2.00;;
49183;SDS011;35021;49.214;12.270;2023-09-08T05:10:14;2.55;;;2.10;;
49183;SDS011;35021;49.214;12.270;2023-09-08T05:12:41;2.95;;;1.83;;
49183;SDS011;35021;49.214;12.270;2023-09-08T05:15:08;2.67;;;2.28;;
49183;SDS011;35021;49.214;12.270;2023-09-08T05:17:41;2.25;;;1.98;;
49183;SDS011;35021;49.214;12.270;2023-09-08T05:20:08;3.17;;;2.30;;
49183;SDS011;35021;49.214;12.270;2023-09-08T05:22:35;3.88;;;2.42;;
49183;SDS011;35021;49.214;12.270;2023-09-08T05:25:03;2.50;;;2.30;;
49183;SDS011;35021;49.214;12.270;2023-09-08T05:27:30;3.55;;;2.47;;
49183;SDS011;35021;49.214;12.270;2023-09-08T05:29:58;2.50;;;2.22;;
49183;SDS011;35021;49.214;12.270;2023-09-08T05:32:25;3.15;;;2.13;;
49183;SDS011;35021;49.214;12.270;2023-09-08T05:34:52;3.63;;;2.58;;
49183;SDS011;35021;49.214;12.270;2023-09-08T05:37:19;2.35;;;2.15;;
49183;SDS011;35021;49.214;12.270;2023-09-08T05:39:46;3.83;;;2.50;;
49183;SDS011;35021;49.214;12.270;2023-09-08T05:42:12;2.45;;;2.25;;
49183;SDS011;35021;49.214;12.270;2023-09-08T05:44:39;2.58;;;2.17;;
49183;SDS011;35021;49.214;12.270;2023-09-08T05:47:06;2.97;;;2.50;;
49183;SDS011;35021;49.214;12.270;2023-09-08T05:49:33;3.10;;;2.60;;
49183;SDS011;35021;49.214;12.270;2023-09-08T05:52:03;3.33;;;2.45;;
49183;SDS011;35021;49.214;12.270;2023-09-08T05:54:30;4.80;;;2.85;;
49183;SDS011;35021;49.214;12.270;2023-09-08T05:56:57;3.90;;;2.42;;
49183;SDS011;35021;49.214;12.270;2023-09-08T05:59:24;2.72;;;2.47;;
49183;SDS011;35021;49.214;12.270;2023-09-08T06:01:50;3.05;;;2.70;;
49183;SDS011;35021;49.214;12.270;2023-09-08T06:04:17;3.25;;;2.50;;
49183;SDS011;35021;49.214;12.270;2023-09-08T06:06:44;3.50;;;2.50;;
49183;SDS011;35021;49.214;12.270;2023-09-08T06:09:11;3.65;;;2.58;;
49183;SDS011;35021;49.214;12.270;2023-09-08T06:11:40;3.30;;;2.30;;
49183;SDS011;35021;49.214;12.270;2023-09-08T06:14:07;4.30;;;2.72;;
49183;SDS011;35021;49.214;12.270;2023-09-08T06:16:34;4.78;;;2.90;;
49183;SDS011;35021;49.214;12.270;2023-09-08T06:19:02;3.85;;;2.72;;
49183;SDS011;35021;49.214;12.270;2023-09-08T06:21:29;3.80;;;2.35;;
49183;SDS011;35021;49.214;12.270;2023-09-08T06:23:56;4.57;;;2.90;;
49183;SDS011;35021;49.214;12.270;2023-09-08T06:26:23;3.78;;;2.63;;
49183;SDS011;35021;49.214;12.270;2023-09-08T06:28:50;3.38;;;2.97;;
49183;SDS011;35021;49.214;12.270;2023-09-08T06:31:17;4.47;;;2.50;;
49183;SDS011;35021;49.214;12.270;2023-09-08T06:33:44;5.57;;;2.88;;
49183;SDS011;35021;49.214;12.270;2023-09-08T06:36:11;3.67;;;3.22;;
49183;SDS011;35021;49.214;12.270;2023-09-08T06:38:38;4.50;;;2.65;;
49183;SDS011;35021;49.214;12.270;2023-09-08T06:41:09;5.00;;;3.30;;
49183;SDS011;35021;49.214;12.270;2023-09-08T06:43:37;4.03;;;2.90;;
49183;SDS011;35021;49.214;12.270;2023-09-08T06:46:04;3.85;;;2.90;;
49183;SDS011;35021;49.214;12.270;2023-09-08T06:48:31;3.83;;;2.88;;
49183;SDS011;35021;49.214;12.270;2023-09-08T06:50:59;6.72;;;3.17;;
49183;SDS011;35021;49.214;12.270;2023-09-08T06:53:26;5.07;;;2.90;;
49183;SDS011;35021;49.214;12.270;2023-09-08T06:55:53;3.15;;;2.70;;
49183;SDS011;35021;49.214;12.270;2023-09-08T06:58:20;4.35;;;2.78;;
49183;SDS011;35021;49.214;12.270;2023-09-08T07:00:47;3.53;;;3.13;;
49183;SDS011;35021;49.214;12.270;2023-09-08T07:03:16;5.38;;;3.20;;
49183;SDS011;35021;49.214;12.270;2023-09-08T07:05:43;6.00;;;3.05;;
49183;SDS011;35021;49.214;12.270;2023-09-08T07:08:10;4.55;;;3.03;;
49183;SDS011;35021;49.214;12.270;2023-09-08T07:10:37;4.88;;;3.08;;
49183;SDS011;35021;49.214;12.270;2023-09-08T07:13:04;2.97;;;2.67;;
49183;SDS011;35021;49.214;12.270;2023-09-08T07:15:31;5.70;;;3.67;;
49183;SDS011;35021;49.214;12.270;2023-09-08T07:17:58;3.78;;;3.20;;
49183;SDS011;35021;49.214;12.270;2023-09-08T07:20:25;4.85;;;3.47;;
49183;SDS011;35021;49.214;12.270;2023-09-08T07:22:52;4.50;;;2.83;;
49183;SDS011;35021;49.214;12.270;2023-09-08T07:25:19;4.30;;;3.13;;
49183;SDS011;35021;49.214;12.270;2023-09-08T07:27:46;4.10;;;3.22;;
49183;SDS011;35021;49.214;12.270;2023-09-08T07:30:14;3.45;;;3.13;;
49183;SDS011;35021;49.214;12.270;2023-09-08T07:32:41;4.28;;;3.00;;
49183;SDS011;35021;49.214;12.270;2023-09-08T07:35:08;5.93;;;3.40;;
49183;SDS011;35021;49.214;12.270;2023-09-08T07:37:40;4.07;;;3.03;;
49183;SDS011;35021;49.214;12.270;2023-09-08T07:40:10;4.63;;;2.95;;
49183;SDS011;35021;49.214;12.270;2023-09-08T07:42:37;4.03;;;3.20;;
49183;SDS011;35021;49.214;12.270;2023-09-08T07:45:04;3.97;;;3.40;;
49183;SDS011;35021;49.214;12.270;2023-09-08T07:47:32;4.35;;;3.13;;
49183;SDS011;35021;49.214;12.270;2023-09-08T07:52:47;3.30;;;2.88;;
49183;SDS011;35021;49.214;12.270;2023-09-08T07:55:14;3.78;;;3.22;;
49183;SDS011;35021;49.214;12.270;2023-09-08T07:57:42;4.00;;;3.10;;
49183;SDS011;35021;49.214;12.270;2023-09-08T08:00:10;3.63;;;2.88;;
49183;SDS011;35021;49.214;12.270;2023-09-08T08:02:56;3.45;;;2.97;;
49183;SDS011;35021;49.214;12.270;2023-09-08T08:05:24;9.00;;;3.58;;
49183;SDS011;35021;49.214;12.270;2023-09-08T08:07:51;4.65;;;3.20;;
49183;SDS011;35021;49.214;12.270;2023-09-08T08:10:19;4.30;;;3.25;;
49183;SDS011;35021;49.214;12.270;2023-09-08T08:12:46;4.90;;;3.20;;
49183;SDS011;35021;49.214;12.270;2023-09-08T08:15:13;3.90;;;2.80;;
49183;SDS011;35021;49.214;12.270;2023-09-08T08:17:40;4.13;;;2.83;;
49183;SDS011;35021;49.214;12.270;2023-09-08T08:20:11;5.40;;;3.05;;
49183;SDS011;35021;49.214;12.270;2023-09-08T08:22:44;3.70;;;3.03;;
49183;SDS011;35021;49.214;12.270;2023-09-08T08:25:11;3.60;;;2.88;;
49183;SDS011;35021;49.214;12.270;2023-09-08T08:27:39;3.58;;;2.72;;
49183;SDS011;35021;49.214;12.270;2023-09-08T08:30:07;3.83;;;3.15;;
49183;SDS011;35021;49.214;12.270;2023-09-08T08:32:34;3.50;;;3.13;;
49183;SDS011;35021;49.214;12.270;2023-09-08T08:35:01;5.78;;;3.03;;
49183;SDS011;35021;49.214;12.270;2023-09-08T08:37:30;3.30;;;2.90;;
49183;SDS011;35021;49.214;12.270;2023-09-08T08:39:57;3.60;;;3.03;;
49183;SDS011;35021;49.214;12.270;2023-09-08T08:42:29;3.50;;;3.08;;
49183;SDS011;35021;49.214;12.270;2023-09-08T08:44:58;4.72;;;3.28;;
49183;SDS011;35021;49.214;12.270;2023-09-08T08:47:28;4.65;;;3.45;;
49183;SDS011;35021;49.214;12.270;2023-09-08T08:49:56;4.05;;;3.15;;
49183;SDS011;35021;49.214;12.270;2023-09-08T08:52:27;4.00;;;3.08;;
49183;SDS011;35021;49.214;12.270;2023-09-08T08:54:55;3.17;;;2.55;;
49183;SDS011;35021;49.214;12.270;2023-09-08T08:57:22;4.72;;;3.45;;
49183;SDS011;35021;49.214;12.270;2023-09-08T08:59:50;3.60;;;3.00;;
49183;SDS011;35021;49.214;12.270;2023-09-08T09:02:18;4.07;;;3.28;;
49183;SDS011;35021;49.214;12.270;2023-09-08T09:04:45;3.83;;;3.03;;
49183;SDS011;35021;49.214;12.270;2023-09-08T09:07:13;3.20;;;2.90;;
49183;SDS011;35021;49.214;12.270;2023-09-08T09:09:40;4.47;;;3.20;;
49183;SDS011;35021;49.214;12.270;2023-09-08T09:12:07;4.18;;;2.78;;
49183;SDS011;35021;49.214;12.270;2023-09-08T09:14:34;5.35;;;2.85;;
49183;SDS011;35021;49.214;12.270;2023-09-08T09:17:01;3.25;;;2.95;;
49183;SDS011;35021;49.214;12.270;2023-09-08T09:19:31;3.40;;;2.88;;
49183;SDS011;35021;49.214;12.270;2023-09-08T09:21:58;3.50;;;3.00;;
49183;SDS011;35021;49.214;12.270;2023-09-08T09:27:04;3.75;;;3.05;;
49183;SDS011;35021;49.214;12.270;2023-09-08T09:29:33;3.33;;;2.90;;
49183;SDS011;35021;49.214;12.270;2023-09-08T09:32:04;3.60;;;3.00;;
49183;SDS011;35021;49.214;12.270;2023-09-08T09:34:32;6.25;;;3.30;;
49183;SDS011;35021;49.214;12.270;2023-09-08T09:37:00;5.20;;;3.22;;
49183;SDS011;35021;49.214;12.270;2023-09-08T09:39:27;3.35;;;3.05;;
49183;SDS011;35021;49.214;12.270;2023-09-08T09:41:55;5.07;;;3.55;;
49183;SDS011;35021;49.214;12.270;2023-09-08T09:44:31;3.33;;;2.92;;
49183;SDS011;35021;49.214;12.270;2023-09-08T09:46:58;4.40;;;3.30;;
49183;SDS011;35021;49.214;12.270;2023-09-08T09:49:27;2.92;;;2.63;;
49183;SDS011;35021;49.214;12.270;2023-09-08T09:51:58;4.35;;;3.15;;
49183;SDS011;35021;49.214;12.270;2023-09-08T09:54:25;5.38;;;3.25;;
49183;SDS011;35021;49.214;12.270;2023-09-08T09:56:52;4.72;;;3.38;;
49183;SDS011;35021;49.214;12.270;2023-09-08T09:59:19;5.15;;;2.92;;
49183;SDS011;35021;49.214;12.270;2023-09-08T10:01:47;5.53;;;3.55;;
49183;SDS011;35021;49.214;12.270;2023-09-08T10:04:15;4.50;;;3.50;;
49183;SDS011;35021;49.214;12.270;2023-09-08T10:06:42;3.55;;;3.20;;
49183;SDS011;35021;49.214;12.270;2023-09-08T10:09:11;4.30;;;3.08;;
49183;SDS011;35021;49.214;12.270;2023-09-08T10:11:44;3.58;;;3.17;;
49183;SDS011;35021;49.214;12.270;2023-09-08T10:14:18;5.30;;;3.20;;
49183;SDS011;35021;49.214;12.270;2023-09-08T10:16:45;3.97;;;3.20;;
49183;SDS011;35021;49.214;12.270;2023-09-08T10:19:22;4.85;;;3.00;;
49183;SDS011;35021;49.214;12.270;2023-09-08T10:21:55;4.93;;;3.50;;
49183;SDS011;35021;49.214;12.270;2023-09-08T10:24:27;4.72;;;3.55;;
49183;SDS011;35021;49.214;12.270;2023-09-08T10:27:04;5.07;;;3.35;;
49183;SDS011;35021;49.214;12.270;2023-09-08T10:29:38;4.25;;;3.40;;
49183;SDS011;35021;49.214;12.270;2023-09-08T10:32:06;4.90;;;3.10;;
49183;SDS011;35021;49.214;12.270;2023-09-08T10:34:35;4.00;;;3.30;;
49183;SDS011;35021;49.214;12.270;2023-09-08T10:37:03;5.30;;;2.92;;
49183;SDS011;35021;49.214;12.270;2023-09-08T10:39:47;3.20;;;2.90;;
49183;SDS011;35021;49.214;12.270;2023-09-08T10:47:19;9.93;;;4.13;;
49183;SDS011;35021;49.214;12.270;2023-09-08T10:49:56;3.15;;;2.85;;
49183;SDS011;35021;49.214;12.270;2023-09-08T10:52:26;3.63;;;2.60;;
49183;SDS011;35021;49.214;12.270;2023-09-08T10:54:54;4.72;;;3.50;;
49183;SDS011;35021;49.214;12.270;2023-09-08T10:57:22;3.72;;;2.88;;
49183;SDS011;35021;49.214;12.270;2023-09-08T10:59:51;3.75;;;3.03;;
49183;SDS011;35021;49.214;12.270;2023-09-08T11:05:13;3.75;;;3.30;;
49183;SDS011;35021;49.214;12.270;2023-09-08T11:07:42;3.45;;;2.95;;
49183;SDS011;35021;49.214;12.270;2023-09-08T11:10:11;3.95;;;3.35;;
49183;SDS011;35021;49.214;12.270;2023-09-08T11:12:39;3.78;;;2.75;;
49183;SDS011;35021;49.214;12.270;2023-09-08T11:15:06;4.70;;;3.42;;
49183;SDS011;35021;49.214;12.270;2023-09-08T11:17:36;3.55;;;2.83;;
49183;SDS011;35021;49.214;12.270;2023-09-08T11:20:08;3.60;;;3.00;;
49183;SDS011;35021;49.214;12.270;2023-09-08T11:22:37;4.35;;;3.35;;
49183;SDS011;35021;49.214;12.270;2023-09-08T11:25:08;4.13;;;2.90;;
49183;SDS011;35021;49.214;12.270;2023-09-08T11:27:37;3.45;;;2.60;;
49183;SDS011;35021;49.214;12.270;2023-09-08T11:30:07;4.88;;;2.78;;
49183;SDS011;35021;49.214;12.270;2023-09-08T11:32:35;3.00;;;2.60;;
49183;SDS011;35021;49.214;12.270;2023-09-08T11:35:06;3.55;;;2.83;;
49183;SDS011;35021;49.214;12.270;2023-09-08T11:37:36;3.53;;;2.90;;
49183;SDS011;35021;49.214;12.270;2023-09-08T11:40:10;3.38;;;2.83;;
49183;SDS011;35021;49.214;12.270;2023-09-08T11:42:41;3.03;;;2.72;;
49183;SDS011;35021;49.214;12.270;2023-09-08T11:45:14;2.80;;;2.45;;
49183;SDS011;35021;49.214;12.270;2023-09-08T11:47:44;4.75;;;2.80;;
49183;SDS011;35021;49.214;12.270;2023-09-08T11:50:11;3.33;;;3.03;;
49183;SDS011;35021;49.214;12.270;2023-09-08T11:52:45;3.75;;;3.35;;
49183;SDS011;35021;49.214;12.270;2023-09-08T11:55:13;3.95;;;2.95;;
49183;SDS011;35021;49.214;12.270;2023-09-08T11:57:41;3.60;;;2.70;;
49183;SDS011;35021;49.214;12.270;2023-09-08T12:00:10;3.38;;;2.90;;
49183;SDS011;35021;49.214;12.270;2023-09-08T12:02:43;4.38;;;2.88;;
49183;SDS011;35021;49.214;12.270;2023-09-08T12:07:49;4.57;;;3.20;;
49183;SDS011;35021;49.214;12.270;2023-09-08T12:10:17;3.17;;;2.88;;
49183;SDS011;35021;49.214;12.270;2023-09-08T12:12:45;4.25;;;2.95;;
49183;SDS011;35021;49.214;12.270;2023-09-08T12:15:36;4.80;;;3.07;;
49183;SDS011;35021;49.214;12.270;2023-09-08T12:20:35;4.25;;;2.85;;
49183;SDS011;35021;49.214;12.270;2023-09-08T12:23:03;5.72;;;2.83;;
49183;SDS011;35021;49.214;12.270;2023-09-08T12:25:31;3.83;;;2.80;;
49183;SDS011;35021;49.214;12.270;2023-09-08T12:28:03;2.95;;;2.58;;
49183;SDS011;35021;49.214;12.270;2023-09-08T12:30:31;4.07;;;2.90;;
49183;SDS011;35021;49.214;12.270;2023-09-08T12:33:00;3.97;;;2.95;;
49183;SDS011;35021;49.214;12.270;2023-09-08T12:35:28;5.45;;;2.60;;
49183;SDS011;35021;49.214;12.270;2023-09-08T12:37:58;3.90;;;2.80;;
49183;SDS011;35021;49.214;12.270;2023-09-08T12:40:27;3.03;;;2.72;;
49183;SDS011;35021;49.214;12.270;2023-09-08T12:42:56;4.47;;;2.63;;
49183;SDS011;35021;49.214;12.270;2023-09-08T12:45:44;4.72;;;3.10;;
49183;SDS011;35021;49.214;12.270;2023-09-08T12:48:13;3.05;;;2.67;;
49183;SDS011;35021;49.214;12.270;2023-09-08T12:50:40;3.38;;;2.85;;
49183;SDS011;35021;49.214;12.270;2023-09-08T12:53:07;3.20;;;2.78;;
49183;SDS011;35021;49.214;12.270;2023-09-08T12:55:34;4.38;;;2.67;;
49183;SDS011;35021;49.214;12.270;2023-09-08T12:58:01;3.10;;;2.80;;
49183;SDS011;35021;49.214;12.270;2023-09-08T13:00:28;3.80;;;2.65;;
49183;SDS011;35021;49.214;12.270;2023-09-08T13:02:55;3.42;;;2.67;;
49183;SDS011;35021;49.214;12.270;2023-09-08T13:05:22;2.92;;;2.40;;
49183;SDS011;35021;49.214;12.270;2023-09-08T13:07:49;5.57;;;2.67;;
49183;SDS011;35021;49.214;12.270;2023-09-08T13:10:16;4.00;;;2.75;;
49183;SDS011;35021;49.214;12.270;2023-09-08T13:12:43;4.22;;;3.00;;
49183;SDS011;35021;49.214;12.270;2023-09-08T13:15:11;4.15;;;2.53;;
49183;SDS011;35021;49.214;12.270;2023-09-08T13:17:38;3.38;;;3.08;;
49183;SDS011;35021;49.214;12.270;2023-09-08T13:20:05;3.53;;;2.60;;
49183;SDS011;35021;49.214;12.270;2023-09-08T13:22:33;3.25;;;2.55;;
49183;SDS011;35021;49.214;12.270;2023-09-08T13:25:00;3.08;;;2.55;;
49183;SDS011;35021;49.214;12.270;2023-09-08T13:27:28;3.35;;;2.50;;
49183;SDS011;35021;49.214;12.270;2023-09-08T13:30:07;3.47;;;2.75;;
49183;SDS011;35021;49.214;12.270;2023-09-08T13:32:38;4.40;;;3.00;;
49183;SDS011;35021;49.214;12.270;2023-09-08T13:35:05;3.35;;;2.70;;
49183;SDS011;35021;49.214;12.270;2023-09-08T13:37:33;3.53;;;2.92;;
49183;SDS011;35021;49.214;12.270;2023-09-08T13:40:01;3.22;;;2.92;;
49183;SDS011;35021;49.214;12.270;2023-09-08T13:42:31;4.10;;;2.90;;
49183;SDS011;35021;49.214;12.270;2023-09-08T13:44:58;3.00;;;2.67;;
49183;SDS011;35021;49.214;12.270;2023-09-08T13:47:26;3.13;;;2.67;;
49183;SDS011;35021;49.214;12.270;2023-09-08T13:49:53;2.60;;;2.10;;
49183;SDS011;35021;49.214;12.270;2023-09-08T13:52:24;4.90;;;3.00;;
49183;SDS011;35021;49.214;12.270;2023-09-08T13:54:56;3.47;;;2.60;;
49183;SDS011;35021;49.214;12.270;2023-09-08T13:57:26;3.65;;;2.30;;
49183;SDS011;35021;49.214;12.270;2023-09-08T13:59:54;3.95;;;2.85;;
49183;SDS011;35021;49.214;12.270;2023-09-08T14:02:23;3.78;;;2.63;;
49183;SDS011;35021;49.214;12.270;2023-09-08T14:04:52;3.15;;;2.58;;
49183;SDS011;35021;49.214;12.270;2023-09-08T14:07:23;2.70;;;2.25;;
49183;SDS011;35021;49.214;12.270;2023-09-08T14:10:01;3.47;;;2.60;;
49183;SDS011;35021;49.214;12.270;2023-09-08T14:12:36;3.10;;;2.80;;
49183;SDS011;35021;49.214;12.270;2023-09-08T14:15:03;3.72;;;2.40;;
49183;SDS011;35021;49.214;12.270;2023-09-08T14:17:32;3.83;;;2.70;;
49183;SDS011;35021;49.214;12.270;2023-09-08T14:19:59;3.05;;;2.40;;
49183;SDS011;35021;49.214;12.270;2023-09-08T14:22:26;2.80;;;2.35;;
49183;SDS011;35021;49.214;12.270;2023-09-08T14:24:53;5.70;;;2.92;;
49183;SDS011;35021;49.214;12.270;2023-09-08T14:27:20;3.17;;;2.50;;
49183;SDS011;35021;49.214;12.270;2023-09-08T14:29:46;3.45;;;2.53;;
49183;SDS011;35021;49.214;12.270;2023-09-08T14:32:13;5.22;;;2.78;;
49183;SDS011;35021;49.214;12.270;2023-09-08T14:34:40;3.55;;;2.58;;
49183;SDS011;35021;49.214;12.270;2023-09-08T14:37:07;3.75;;;2.70;;
49183;SDS011;35021;49.214;12.270;2023-09-08T14:39:37;3.58;;;2.22;;
49183;SDS011;35021;49.214;12.270;2023-09-08T14:42:03;3.15;;;2.55;;
49183;SDS011;35021;49.214;12.270;2023-09-08T14:44:31;3.92;;;2.50;;
49183;SDS011;35021;49.214;12.270;2023-09-08T14:46:58;3.30;;;2.50;;
49183;SDS011;35021;49.214;12.270;2023-09-08T14:49:25;2.92;;;2.38;;
49183;SDS011;35021;49.214;12.270;2023-09-08T14:51:52;3.95;;;2.60;;
49183;SDS011;35021;49.214;12.270;2023-09-08T14:54:19;4.72;;;2.60;;
49183;SDS011;35021;49.214;12.270;2023-09-08T14:56:46;3.15;;;2.47;;
49183;SDS011;35021;49.214;12.270;2023-09-08T14:59:13;2.60;;;2.30;;
49183;SDS011;35021;49.214;12.270;2023-09-08T15:01:39;3.60;;;2.80;;
49183;SDS011;35021;49.214;12.270;2023-09-08T15:04:07;3.20;;;2.58;;